Time;durP1;ratioP1;P1;durP2;ratioP2;P2;SDS_P1;SDS_P2;PMS_P1;PMS_P2;Temp;Humidity;BMP_temperature;BMP_pressure;BME280_temperature;BME280_humidity;BME280_pressure;Samples;Min_cycle;Max_cycle;Signal;HPM_P1;HPM_P2
2021/09/09 00:01:22;;;;;;;5.30;4.90;;;29.40;46.10;;;;;;5104040;28;20459;-73
2021/09/09 00:03:52;;;;;;;6.00;5.40;;;29.40;46.20;;;;;;5103697;28;20424;-76
2021/09/09 00:06:20;;;;;;;4.90;4.50;;;29.30;46.30;;;;;;5104505;28;20525;-80
2021/09/09 00:08:48;;;;;;;5.97;5.10;;;29.30;46.40;;;;;;5104284;28;20458;-76
2021/09/09 00:11:16;;;;;;;5.27;4.87;;;29.30;46.40;;;;;;5104541;28;20467;-76
2021/09/09 00:13:44;;;;;;;5.10;4.80;;;29.30;46.60;;;;;;5096002;28;20436;-74
2021/09/09 00:16:12;;;;;;;5.30;4.80;;;29.30;46.70;;;;;;5104353;28;20526;-76
2021/09/09 00:18:40;;;;;;;5.27;4.87;;;29.30;46.70;;;;;;5103726;28;20556;-81
2021/09/09 00:21:09;;;;;;;5.57;5.13;;;29.30;46.80;;;;;;5103772;28;20498;-76
2021/09/09 00:23:37;;;;;;;8.63;4.93;;;29.30;46.80;;;;;;5103854;28;20424;-77
2021/09/09 00:26:05;;;;;;;5.70;5.10;;;29.30;46.80;;;;;;5101641;28;20482;-76
2021/09/09 00:28:33;;;;;;;5.63;5.13;;;29.30;46.80;;;;;;5104397;28;20531;-76
2021/09/09 00:31:01;;;;;;;5.43;4.93;;;29.30;46.90;;;;;;5103965;28;20452;-73
2021/09/09 00:33:29;;;;;;;5.13;4.73;;;29.30;47.10;;;;;;5103757;28;20452;-76
2021/09/09 00:35:57;;;;;;;5.13;4.73;;;29.30;47.00;;;;;;5104089;28;20428;-77
2021/09/09 00:38:26;;;;;;;4.83;4.53;;;29.20;47.00;;;;;;5103935;28;20521;-76
2021/09/09 00:40:54;;;;;;;4.67;4.37;;;29.20;47.10;;;;;;5104122;28;20446;-76
2021/09/09 00:43:22;;;;;;;5.20;4.70;;;29.20;47.10;;;;;;5103872;28;20489;-76
2021/09/09 00:45:50;;;;;;;5.50;5.07;;;29.20;47.10;;;;;;5103434;28;20560;-76
2021/09/09 00:48:18;;;;;;;4.40;4.10;;;29.20;47.20;;;;;;5103865;28;20453;-77
2021/09/09 00:50:46;;;;;;;5.47;5.07;;;29.20;47.30;;;;;;5103387;28;20424;-77
2021/09/09 00:53:14;;;;;;;5.80;5.07;;;29.20;47.30;;;;;;5106072;28;20474;-76
2021/09/09 00:55:43;;;;;;;5.70;5.30;;;29.20;47.20;;;;;;5104782;28;20511;-76
2021/09/09 00:58:11;;;;;;;5.83;5.33;;;29.20;47.30;;;;;;5107319;28;20462;-75
2021/09/09 01:00:42;;;;;;;6.07;5.57;;;29.20;47.20;;;;;;5106157;28;20471;-78
2021/09/09 01:03:10;;;;;;;5.63;5.23;;;29.10;47.30;;;;;;5106970;28;20447;-78
2021/09/09 01:05:39;;;;;;;5.40;5.00;;;29.20;47.40;;;;;;5107097;28;20554;-78
2021/09/09 01:08:07;;;;;;;5.97;5.47;;;29.10;47.30;;;;;;5104122;28;20489;-78
2021/09/09 01:10:34;;;;;;;5.60;5.20;;;29.10;47.40;;;;;;5107058;28;20478;-81
2021/09/09 01:13:07;;;;;;;5.47;5.07;;;29.10;47.40;;;;;;5107277;28;20407;-80
2021/09/09 01:15:39;;;;;;;9.60;5.53;;;29.00;47.40;;;;;;5107312;28;20559;-81
2021/09/09 01:18:09;;;;;;;5.27;4.87;;;29.10;47.50;;;;;;5107502;28;20456;-80
2021/09/09 01:20:37;;;;;;;6.07;5.47;;;29.10;47.50;;;;;;5106820;28;20440;-81
2021/09/09 01:23:05;;;;;;;5.57;5.07;;;29.10;47.40;;;;;;5106953;28;20535;-81
2021/09/09 01:25:34;;;;;;;6.10;5.50;;;29.00;47.40;;;;;;5107056;28;20436;-79
2021/09/09 01:28:03;;;;;;;5.43;5.03;;;29.00;47.30;;;;;;5107875;28;20447;-81
2021/09/09 01:30:31;;;;;;;5.90;5.27;;;29.00;47.30;;;;;;5107126;28;20436;-81
2021/09/09 01:33:00;;;;;;;6.07;5.47;;;29.00;47.30;;;;;;5107462;28;20479;-80
2021/09/09 01:35:44;;;;;;;6.23;5.63;;;28.90;47.30;;;;;;5113710;28;20467;-79
2021/09/09 01:38:21;;;;;;;6.97;5.30;;;29.00;47.60;;;;;;5107547;28;20709;-79
2021/09/09 01:40:50;;;;;;;6.03;5.40;;;28.90;47.50;;;;;;5107229;28;20434;-79
2021/09/09 01:43:18;;;;;;;5.80;5.17;;;28.90;47.50;;;;;;5106988;28;20428;-79
2021/09/09 01:45:46;;;;;;;5.10;4.70;;;28.90;47.60;;;;;;5107296;28;20489;-79
2021/09/09 01:48:14;;;;;;;5.50;5.00;;;28.90;47.60;;;;;;5102276;28;20460;-79
2021/09/09 01:50:42;;;;;;;6.03;5.50;;;28.80;47.50;;;;;;5105134;28;20482;-76
2021/09/09 01:53:10;;;;;;;6.00;5.50;;;28.80;47.50;;;;;;5111196;27;20467;-77
2021/09/09 01:55:38;;;;;;;5.47;5.07;;;28.80;47.60;;;;;;5110889;27;20470;-77
2021/09/09 01:58:07;;;;;;;6.67;6.03;;;28.80;47.60;;;;;;5106233;28;20467;-77
2021/09/09 02:00:35;;;;;;;5.50;5.10;;;28.70;47.60;;;;;;5105726;28;20513;-74
2021/09/09 02:03:03;;;;;;;5.87;5.40;;;28.70;47.60;;;;;;5105786;28;20560;-74
2021/09/09 02:05:31;;;;;;;5.47;4.97;;;28.70;47.60;;;;;;5105713;28;20435;-74
2021/09/09 02:07:59;;;;;;;5.80;5.33;;;28.70;47.60;;;;;;5114541;27;20481;-74
2021/09/09 02:10:27;;;;;;;6.50;6.00;;;28.70;47.60;;;;;;5103369;28;20467;-76
2021/09/09 02:12:55;;;;;;;6.30;5.67;;;28.70;47.60;;;;;;5105021;28;20428;-76
2021/09/09 02:15:25;;;;;;;5.90;5.40;;;28.70;47.50;;;;;;5105431;28;20436;-76
2021/09/09 02:17:53;;;;;;;6.30;5.80;;;28.60;47.50;;;;;;5106473;28;20503;-76
2021/09/09 02:20:21;;;;;;;6.27;5.67;;;28.70;47.60;;;;;;5106765;28;20568;-80
2021/09/09 02:22:49;;;;;;;7.10;6.50;;;28.60;47.60;;;;;;5106291;28;20498;-80
2021/09/09 02:25:17;;;;;;;6.20;5.60;;;28.60;47.60;;;;;;5105719;28;20501;-81
2021/09/09 02:27:45;;;;;;;7.27;6.60;;;28.60;47.50;;;;;;5106509;28;20471;-80
2021/09/09 02:30:13;;;;;;;6.37;5.87;;;28.60;47.50;;;;;;5106180;28;20430;-80
2021/09/09 02:32:42;;;;;;;6.73;5.90;;;28.50;47.50;;;;;;5106504;28;20504;-80
2021/09/09 02:35:11;;;;;;;6.20;5.60;;;28.50;47.60;;;;;;5106397;28;20410;-80
2021/09/09 02:37:39;;;;;;;6.53;5.80;;;28.50;47.50;;;;;;5105892;28;20495;-80
2021/09/09 02:40:08;;;;;;;6.20;5.70;;;28.50;47.60;;;;;;5106219;28;20493;-80
2021/09/09 02:42:37;;;;;;;5.97;5.47;;;28.50;47.50;;;;;;5106081;28;20444;-75
2021/09/09 02:45:06;;;;;;;6.33;5.73;;;28.40;47.40;;;;;;5106138;28;20446;-76
2021/09/09 02:47:34;;;;;;;5.73;5.33;;;28.50;47.50;;;;;;5106117;28;20398;-76
2021/09/09 02:50:03;;;;;;;9.63;6.10;;;28.40;47.40;;;;;;5106347;28;20468;-76
2021/09/09 02:52:32;;;;;;;6.30;5.80;;;28.40;47.40;;;;;;5106080;28;20498;-76
2021/09/09 02:55:00;;;;;;;11.47;6.10;;;28.40;47.40;;;;;;5105890;28;20502;-76
2021/09/09 02:57:28;;;;;;;6.47;5.87;;;28.40;47.60;;;;;;5106040;28;20445;-76
2021/09/09 02:59:55;;;;;;;5.90;5.40;;;28.40;47.60;;;;;;5106272;28;20513;-76
2021/09/09 03:02:24;;;;;;;6.73;6.00;;;28.40;47.60;;;;;;5105216;28;20422;-76
2021/09/09 03:04:53;;;;;;;5.80;5.40;;;28.30;48.10;;;;;;5105898;28;20451;-74
2021/09/09 03:07:22;;;;;;;6.70;6.00;;;28.30;47.50;;;;;;5105643;28;20440;-74
2021/09/09 03:09:50;;;;;;;6.40;5.90;;;28.30;47.50;;;;;;5105254;28;20432;-74
2021/09/09 03:12:18;;;;;;;6.73;6.10;;;28.30;47.50;;;;;;5105151;28;20457;-74
2021/09/09 03:14:46;;;;;;;6.90;6.10;;;28.30;47.50;;;;;;5105661;28;20475;-74
2021/09/09 03:17:14;;;;;;;6.60;6.10;;;28.30;47.50;;;;;;5105398;28;20503;-74
2021/09/09 03:19:42;;;;;;;6.00;5.50;;;28.30;47.50;;;;;;5105600;28;20442;-74
2021/09/09 03:22:10;;;;;;;6.63;6.03;;;28.30;47.50;;;;;;5104893;28;20444;-79
2021/09/09 03:24:39;;;;;;;6.57;5.87;;;28.30;47.40;;;;;;5105257;28;20532;-80
2021/09/09 03:27:07;;;;;;;6.80;6.20;;;28.30;47.50;;;;;;5105093;28;20504;-80
2021/09/09 03:29:35;;;;;;;6.80;6.10;;;28.20;47.40;;;;;;5104914;28;20402;-79
2021/09/09 03:32:04;;;;;;;6.60;6.10;;;28.20;47.40;;;;;;5104991;28;20442;-77
2021/09/09 03:34:31;;;;;;;6.50;5.90;;;28.20;47.40;;;;;;5105015;28;20463;-74
2021/09/09 03:36:59;;;;;;;6.53;6.03;;;28.20;47.40;;;;;;5104709;28;20499;-74
2021/09/09 03:39:27;;;;;;;7.50;6.17;;;28.20;47.40;;;;;;5104830;28;20475;-74
2021/09/09 03:41:57;;;;;;;6.47;5.97;;;28.10;47.40;;;;;;5104561;28;20420;-74
2021/09/09 03:44:25;;;;;;;6.27;5.67;;;28.20;47.40;;;;;;5104396;28;20427;-77
2021/09/09 03:46:53;;;;;;;5.93;5.43;;;28.10;47.30;;;;;;5104795;28;20440;-78
2021/09/09 03:49:21;;;;;;;6.47;5.87;;;28.10;47.50;;;;;;5104736;28;20439;-78
2021/09/09 03:51:49;;;;;;;6.70;6.10;;;28.10;47.30;;;;;;5104363;28;20475;-78
2021/09/09 03:54:17;;;;;;;6.57;6.07;;;28.10;47.40;;;;;;5104996;28;20516;-78
2021/09/09 03:56:45;;;;;;;6.70;6.20;;;28.10;47.40;;;;;;5104765;28;20470;-78
2021/09/09 03:59:14;;;;;;;6.60;6.00;;;28.10;47.30;;;;;;5104406;28;20474;-77
2021/09/09 04:01:42;;;;;;;6.83;6.00;;;28.10;47.30;;;;;;5095763;28;20474;-78
2021/09/09 04:04:10;;;;;;;6.43;5.93;;;28.10;47.30;;;;;;5098981;28;20452;-80
2021/09/09 04:06:38;;;;;;;6.60;6.00;;;28.10;47.30;;;;;;5103952;28;20471;-77
2021/09/09 04:09:06;;;;;;;6.90;6.30;;;28.10;47.30;;;;;;5104056;28;20420;-77
2021/09/09 04:11:36;;;;;;;9.07;5.90;;;28.00;47.30;;;;;;5104136;28;20468;-77
2021/09/09 04:14:04;;;;;;;6.30;5.80;;;28.00;47.40;;;;;;5104610;28;20428;-80
2021/09/09 04:16:33;;;;;;;8.20;6.53;;;28.00;47.30;;;;;;5103789;28;20463;-80
2021/09/09 04:19:01;;;;;;;6.60;6.00;;;28.00;47.30;;;;;;5104148;28;20438;-80
2021/09/09 04:21:29;;;;;;;6.60;6.00;;;28.00;47.40;;;;;;5104025;28;20483;-80
2021/09/09 04:23:58;;;;;;;6.70;6.20;;;28.00;47.30;;;;;;5104360;28;20501;-79
2021/09/09 04:26:26;;;;;;;6.40;5.90;;;27.90;47.30;;;;;;5104397;28;20493;-79
2021/09/09 04:28:54;;;;;;;6.67;6.00;;;27.90;47.30;;;;;;5107650;28;20473;-78
2021/09/09 04:31:22;;;;;;;6.80;6.20;;;28.00;47.40;;;;;;5108280;28;20502;-78
2021/09/09 04:33:51;;;;;;;6.97;6.30;;;28.00;47.40;;;;;;5108699;28;20448;-79
2021/09/09 04:36:22;;;;;;;6.23;5.63;;;27.90;47.30;;;;;;5108460;28;20492;-79
2021/09/09 04:38:49;;;;;;;6.90;6.30;;;27.90;47.30;;;;;;5108297;28;20451;-79
2021/09/09 04:41:17;;;;;;;6.67;6.07;;;27.90;47.30;;;;;;5107797;28;20432;-79
2021/09/09 04:43:45;;;;;;;7.13;6.53;;;27.90;47.30;;;;;;5108197;28;20446;-79
2021/09/09 04:46:14;;;;;;;7.27;6.60;;;27.90;47.30;;;;;;5108283;28;20428;-79
2021/09/09 04:48:41;;;;;;;6.80;6.30;;;27.90;47.30;;;;;;5108303;28;20431;-77
2021/09/09 04:51:11;;;;;;;7.00;6.40;;;27.90;47.30;;;;;;5107792;28;20427;-77
2021/09/09 04:53:39;;;;;;;6.73;6.13;;;27.90;47.30;;;;;;5108028;28;20473;-77
2021/09/09 04:56:07;;;;;;;6.73;6.13;;;27.80;47.30;;;;;;5108096;28;20500;-77
2021/09/09 04:58:35;;;;;;;7.20;6.50;;;27.90;47.30;;;;;;5107778;28;20475;-77
2021/09/09 05:01:02;;;;;;;6.73;6.13;;;27.80;47.20;;;;;;5107925;28;20414;-77
2021/09/09 05:03:31;;;;;;;7.90;6.83;;;27.80;47.30;;;;;;5108158;28;20524;-77
2021/09/09 05:05:59;;;;;;;6.97;6.33;;;27.80;47.20;;;;;;5107576;28;20543;-74
2021/09/09 05:08:28;;;;;;;6.43;5.93;;;27.80;47.20;;;;;;5108429;28;20464;-74
2021/09/09 05:10:56;;;;;;;6.77;6.27;;;27.80;47.20;;;;;;5107792;28;20505;-74
2021/09/09 05:13:24;;;;;;;7.17;6.47;;;27.70;47.20;;;;;;5108228;28;20503;-74
2021/09/09 05:15:52;;;;;;;6.50;5.93;;;27.80;47.20;;;;;;5107517;28;20446;-74
2021/09/09 05:18:20;;;;;;;7.10;6.50;;;27.80;47.20;;;;;;5107806;28;20473;-74
2021/09/09 05:20:48;;;;;;;6.73;6.20;;;27.70;47.70;;;;;;5107513;28;20501;-74
2021/09/09 05:23:16;;;;;;;6.77;6.17;;;27.70;47.00;;;;;;5107636;28;20435;-76
2021/09/09 05:25:46;;;;;;;7.10;6.40;;;27.70;47.00;;;;;;5107323;28;20515;-76
2021/09/09 05:28:14;;;;;;;6.63;6.10;;;27.70;47.00;;;;;;5107594;28;20498;-76
2021/09/09 05:30:42;;;;;;;7.20;6.50;;;27.70;47.10;;;;;;5107355;28;20438;-76
2021/09/09 05:33:10;;;;;;;7.03;6.43;;;27.70;47.10;;;;;;5108021;28;20440;-76
2021/09/09 05:35:37;;;;;;;7.40;6.70;;;27.70;47.10;;;;;;5107445;28;20451;-77
2021/09/09 05:38:05;;;;;;;7.17;6.50;;;27.70;47.10;;;;;;5106947;28;20504;-77
2021/09/09 05:40:33;;;;;;;7.17;6.47;;;27.70;47.10;;;;;;5106211;28;20431;-77
2021/09/09 05:43:03;;;;;;;6.90;6.30;;;27.70;47.10;;;;;;5106781;28;20478;-77
2021/09/09 05:45:31;;;;;;;6.20;5.70;;;27.70;47.00;;;;;;5106766;28;20418;-77
2021/09/09 05:47:59;;;;;;;6.30;5.80;;;27.70;47.00;;;;;;5106978;28;20501;-77
2021/09/09 05:50:27;;;;;;;7.43;6.73;;;27.70;47.00;;;;;;5106597;28;20432;-77
2021/09/09 05:52:55;;;;;;;6.90;6.30;;;27.70;47.00;;;;;;5106879;28;20509;-77
2021/09/09 05:55:23;;;;;;;7.37;6.67;;;27.80;47.00;;;;;;5106547;28;20501;-77
2021/09/09 05:57:51;;;;;;;7.10;6.43;;;27.70;46.90;;;;;;5106701;28;20571;-77
2021/09/09 06:00:21;;;;;;;7.40;6.80;;;27.70;46.90;;;;;;5106490;28;20470;-77
2021/09/09 06:02:49;;;;;;;7.13;6.53;;;27.70;46.80;;;;;;5106983;28;20509;-76
2021/09/09 06:05:18;;;;;;;6.70;6.10;;;27.70;46.80;;;;;;5106270;28;20463;-79
2021/09/09 06:07:46;;;;;;;7.00;6.40;;;27.80;46.90;;;;;;5106522;28;20508;-79
2021/09/09 06:10:14;;;;;;;6.83;6.17;;;27.80;46.80;;;;;;5106472;28;20467;-80
2021/09/09 06:12:42;;;;;;;7.53;6.83;;;27.80;46.70;;;;;;5106444;28;20483;-80
2021/09/09 06:15:10;;;;;;;7.43;6.70;;;27.80;46.60;;;;;;5106103;28;20413;-80
2021/09/09 06:17:40;;;;;;;7.03;6.53;;;27.80;46.60;;;;;;5106604;28;20464;-75
2021/09/09 06:20:09;;;;;;;6.80;6.20;;;27.80;46.60;;;;;;5106290;28;20479;-75
2021/09/09 06:22:38;;;;;;;7.13;6.60;;;27.80;46.60;;;;;;5106650;28;20440;-74
2021/09/09 06:25:06;;;;;;;6.87;6.27;;;27.80;46.60;;;;;;5106026;28;20453;-74
2021/09/09 06:27:34;;;;;;;8.57;6.20;;;27.80;46.60;;;;;;5105832;28;20473;-74
2021/09/09 06:30:02;;;;;;;8.10;7.40;;;27.90;46.60;;;;;;5105714;28;20471;-74
2021/09/09 06:32:31;;;;;;;6.80;6.20;;;27.90;46.60;;;;;;5106166;28;20422;-79
2021/09/09 06:35:00;;;;;;;6.43;5.90;;;27.90;46.50;;;;;;5105875;28;20438;-80
2021/09/09 06:37:28;;;;;;;6.67;6.17;;;27.90;46.50;;;;;;5105537;28;20452;-77
2021/09/09 06:39:56;;;;;;;7.20;6.60;;;27.90;46.60;;;;;;5105540;28;20414;-77
2021/09/09 06:42:24;;;;;;;6.87;6.30;;;27.90;46.50;;;;;;5105499;28;20427;-74
2021/09/09 06:44:52;;;;;;;7.07;6.47;;;27.90;46.60;;;;;;5105950;28;20424;-80
2021/09/09 06:47:20;;;;;;;7.23;6.57;;;27.90;46.40;;;;;;5105301;28;20410;-79
2021/09/09 06:49:48;;;;;;;8.87;6.90;;;27.90;46.40;;;;;;5105352;28;20473;-79
2021/09/09 06:52:17;;;;;;;8.13;7.40;;;27.90;46.40;;;;;;5105213;28;20529;-79
2021/09/09 06:54:45;;;;;;;7.00;6.37;;;27.90;46.50;;;;;;5105716;28;20398;-80
2021/09/09 06:57:13;;;;;;;6.87;6.17;;;27.90;46.30;;;;;;5105906;28;20443;-79
2021/09/09 06:59:41;;;;;;;6.90;6.30;;;27.90;46.40;;;;;;5105394;28;20567;-79
2021/09/09 07:02:09;;;;;;;7.00;6.37;;;28.00;46.50;;;;;;5105687;28;20425;-76
2021/09/09 07:04:37;;;;;;;6.83;6.30;;;28.00;46.50;;;;;;5105374;28;20459;-76
2021/09/09 07:07:05;;;;;;;7.63;6.83;;;28.00;46.50;;;;;;5105248;28;20410;-77
2021/09/09 07:09:34;;;;;;;6.97;6.27;;;28.00;46.50;;;;;;5104961;28;20432;-79
2021/09/09 07:12:02;;;;;;;7.20;6.50;;;28.00;46.40;;;;;;5104940;28;20519;-78
2021/09/09 07:14:30;;;;;;;7.60;6.90;;;28.00;46.40;;;;;;5105273;28;20444;-76
2021/09/09 07:16:58;;;;;;;7.33;6.73;;;28.00;46.50;;;;;;5105263;28;20439;-76
2021/09/09 07:19:26;;;;;;;7.67;7.00;;;28.00;46.30;;;;;;5104952;28;20467;-76
2021/09/09 07:21:54;;;;;;;7.37;6.73;;;28.10;46.30;;;;;;5105063;28;20414;-76
2021/09/09 07:24:22;;;;;;;7.67;7.03;;;28.00;46.30;;;;;;5105091;28;20410;-76
2021/09/09 07:26:51;;;;;;;7.50;6.70;;;28.10;46.40;;;;;;5103976;28;20471;-76
2021/09/09 07:29:19;;;;;;;7.53;6.83;;;28.10;46.40;;;;;;5099169;28;20491;-76
2021/09/09 07:31:47;;;;;;;7.70;7.00;;;28.10;46.30;;;;;;5104730;28;20523;-76
2021/09/09 07:34:18;;;;;;;7.00;6.43;;;28.10;46.30;;;;;;5104678;28;20477;-76
2021/09/09 07:36:46;;;;;;;7.40;6.70;;;28.20;46.20;;;;;;5104557;28;20443;-76
2021/09/09 07:39:14;;;;;;;7.27;6.67;;;28.20;46.10;;;;;;5101588;28;20468;-76
2021/09/09 07:41:42;;;;;;;7.37;6.73;;;28.20;46.10;;;;;;5104286;28;20437;-76
2021/09/09 07:44:11;;;;;;;7.80;7.13;;;28.30;46.00;;;;;;5104191;28;20440;-76
2021/09/09 07:46:39;;;;;;;6.87;6.37;;;28.30;46.00;;;;;;5103958;28;20430;-76
2021/09/09 07:49:08;;;;;;;7.33;6.73;;;28.40;46.00;;;;;;5104172;28;20469;-76
2021/09/09 07:51:37;;;;;;;7.20;6.60;;;28.40;46.00;;;;;;5103530;28;20446;-75
2021/09/09 07:54:05;;;;;;;8.63;6.50;;;28.40;46.00;;;;;;5102031;28;20501;-75
2021/09/09 07:56:33;;;;;;;7.03;6.40;;;28.40;46.00;;;;;;5103310;28;20519;-77
2021/09/09 07:59:01;;;;;;;7.03;6.37;;;28.40;45.70;;;;;;5104046;28;20467;-75
2021/09/09 08:01:30;;;;;;;7.90;7.20;;;28.40;45.90;;;;;;5102288;28;20508;-75
2021/09/09 08:04:00;;;;;;;7.40;6.70;;;28.40;46.10;;;;;;5104216;28;20439;-75
2021/09/09 08:06:31;;;;;;;8.43;7.17;;;28.40;46.10;;;;;;5105070;28;20439;-75
2021/09/09 08:09:10;;;;;;;8.90;7.33;;;28.50;46.10;;;;;;5105393;28;20470;-76
2021/09/09 08:11:38;;;;;;;7.60;6.67;;;28.60;46.10;;;;;;5105219;28;20439;-76
2021/09/09 08:14:06;;;;;;;7.63;6.83;;;28.70;46.60;;;;;;5105324;28;20455;-76
2021/09/09 08:16:49;;;;;;;7.47;6.70;;;28.80;45.90;;;;;;5104558;28;20452;-75
2021/09/09 08:19:18;;;;;;;7.87;7.07;;;29.00;45.80;;;;;;5104796;28;20459;-75
2021/09/09 08:21:48;;;;;;;6.50;5.90;;;29.10;45.60;;;;;;5104061;28;20435;-75
2021/09/09 08:24:15;;;;;;;7.97;7.17;;;29.30;45.60;;;;;;5104195;28;20432;-75
2021/09/09 08:26:43;;;;;;;7.80;6.40;;;29.50;45.50;;;;;;5104120;28;20432;-75
2021/09/09 08:29:11;;;;;;;8.80;7.23;;;29.70;45.40;;;;;;5104236;28;20535;-75
2021/09/09 08:31:41;;;;;;;6.77;6.13;;;29.90;45.10;;;;;;5104105;28;20406;-75
2021/09/09 08:34:08;;;;;;;6.97;6.37;;;30.10;44.90;;;;;;5104089;28;20431;-75
2021/09/09 08:36:36;;;;;;;7.33;6.63;;;30.30;44.80;;;;;;5104304;28;20402;-75
2021/09/09 08:39:04;;;;;;;6.70;6.10;;;30.60;44.60;;;;;;5104580;28;20471;-75
2021/09/09 08:41:32;;;;;;;6.70;5.67;;;30.80;44.40;;;;;;5104280;28;20515;-75
2021/09/09 08:44:00;;;;;;;6.83;6.07;;;31.00;44.20;;;;;;5104003;28;20478;-75
2021/09/09 08:46:28;;;;;;;7.10;5.93;;;31.20;44.10;;;;;;5104181;28;20443;-77
2021/09/09 08:48:57;;;;;;;7.00;6.40;;;31.40;43.90;;;;;;5101462;28;20512;-75
2021/09/09 08:51:25;;;;;;;6.93;6.33;;;31.60;43.70;;;;;;5103714;28;20428;-75
2021/09/09 08:53:53;;;;;;;6.73;6.13;;;31.80;43.40;;;;;;5098855;28;20559;-75
2021/09/09 08:56:21;;;;;;;5.83;5.43;;;32.00;43.30;;;;;;5104037;28;20424;-75
2021/09/09 08:58:49;;;;;;;8.40;5.83;;;32.20;43.20;;;;;;5103632;28;20451;-75
2021/09/09 09:01:18;;;;;;;7.53;6.83;;;32.30;43.00;;;;;;5103778;28;20448;-75
2021/09/09 09:03:50;;;;;;;6.77;6.17;;;32.50;42.80;;;;;;5103902;28;20431;-75
2021/09/09 09:06:36;;;;;;;6.40;5.90;;;32.80;42.70;;;;;;5101082;28;20440;-75
2021/09/09 09:09:08;;;;;;;5.90;5.50;;;32.90;42.60;;;;;;5101866;28;20428;-75
2021/09/09 09:11:38;;;;;;;6.20;5.70;;;33.10;42.40;;;;;;5103476;28;20448;-75
2021/09/09 09:14:07;;;;;;;6.40;5.80;;;33.30;42.20;;;;;;5105515;28;20498;-75
2021/09/09 09:16:35;;;;;;;5.83;5.43;;;33.50;42.00;;;;;;5107708;28;20427;-75
2021/09/09 09:19:03;;;;;;;7.30;6.27;;;33.70;41.80;;;;;;5107435;28;20435;-75
2021/09/09 09:21:34;;;;;;;5.70;5.20;;;34.00;41.70;;;;;;5103901;28;20463;-76
2021/09/09 09:24:02;;;;;;;6.60;6.00;;;34.10;41.40;;;;;;5094437;28;20453;-75
2021/09/09 09:26:30;;;;;;;6.37;5.87;;;34.40;41.30;;;;;;5100794;28;20452;-75
2021/09/09 09:28:58;;;;;;;5.67;5.27;;;34.60;41.00;;;;;;5100879;28;20458;-75
2021/09/09 09:31:27;;;;;;;6.20;5.70;;;34.80;40.80;;;;;;5099908;28;20519;-75
2021/09/09 09:33:56;;;;;;;5.60;5.30;;;35.10;40.70;;;;;;5100543;27;20445;-75
2021/09/09 09:36:25;;;;;;;5.77;5.27;;;35.30;40.40;;;;;;5095888;27;20449;-75
2021/09/09 09:39:07;;;;;;;5.90;5.50;;;35.50;40.20;;;;;;5091398;27;20448;-75
2021/09/09 09:41:36;;;;;;;5.60;5.03;;;35.70;39.80;;;;;;5093401;27;20440;-75
2021/09/09 09:44:18;;;;;;;5.63;5.33;;;36.00;39.60;;;;;;5097583;27;20447;-75
2021/09/09 09:46:46;;;;;;;5.43;4.93;;;36.20;39.30;;;;;;5095329;28;20444;-75
2021/09/09 09:49:18;;;;;;;5.50;5.00;;;36.50;39.20;;;;;;5098981;27;20466;-75
2021/09/09 09:51:47;;;;;;;4.97;4.67;;;36.70;38.90;;;;;;5099567;27;20475;-76
2021/09/09 09:54:17;;;;;;;5.53;5.23;;;36.90;38.70;;;;;;5098652;27;20509;-76
2021/09/09 09:56:46;;;;;;;5.57;5.03;;;37.20;38.50;;;;;;5101248;27;20435;-76
2021/09/09 09:59:14;;;;;;;5.20;4.80;;;37.40;38.20;;;;;;5098761;27;20502;-76
2021/09/09 10:01:42;;;;;;;5.77;5.37;;;37.60;38.00;;;;;;5097278;28;20541;-76
2021/09/09 10:04:12;;;;;;;5.20;4.90;;;37.80;37.70;;;;;;5099102;28;20586;-76
2021/09/09 10:06:41;;;;;;;5.57;5.17;;;38.00;37.50;;;;;;5100682;27;20439;-75
2021/09/09 10:09:10;;;;;;;5.40;5.00;;;38.20;37.20;;;;;;5103520;27;20466;-75
2021/09/09 10:11:40;;;;;;;5.30;4.90;;;38.50;37.00;;;;;;5103825;27;20464;-76
2021/09/09 10:14:08;;;;;;;5.30;5.00;;;38.70;36.90;;;;;;5092225;27;20448;-76
2021/09/09 10:16:38;;;;;;;5.40;5.10;;;39.00;36.70;;;;;;5102575;27;20444;-77
2021/09/09 10:19:09;;;;;;;4.53;4.33;;;39.20;36.40;;;;;;5103000;27;20456;-76
2021/09/09 10:21:39;;;;;;;4.77;4.53;;;39.40;36.30;;;;;;5099751;28;20467;-76
2021/09/09 10:24:08;;;;;;;4.50;4.20;;;39.60;36.00;;;;;;5093582;28;20475;-76
2021/09/09 10:26:36;;;;;;;5.00;4.70;;;39.80;35.80;;;;;;5092433;27;20452;-76
2021/09/09 10:29:08;;;;;;;5.20;4.90;;;40.00;35.60;;;;;;5091911;28;20441;-76
2021/09/09 10:31:42;;;;;;;6.17;4.30;;;40.20;35.40;;;;;;5095931;27;20470;-76
2021/09/09 10:34:21;;;;;;;5.00;4.80;;;40.40;35.10;;;;;;5097780;28;20477;-76
2021/09/09 10:36:49;;;;;;;4.87;4.67;;;40.70;35.00;;;;;;5099117;27;20443;-76
2021/09/09 10:39:19;;;;;;;4.53;4.33;;;40.90;34.80;;;;;;5100798;27;20467;-76
2021/09/09 10:41:47;;;;;;;4.80;4.53;;;41.20;34.60;;;;;;5105251;27;20571;-76
2021/09/09 10:44:16;;;;;;;4.97;4.67;;;41.30;34.20;;;;;;5095791;27;20448;-78
2021/09/09 10:46:47;;;;;;;4.47;4.27;;;41.60;34.00;;;;;;5107217;27;20459;-77
2021/09/09 10:49:17;;;;;;;4.40;4.20;;;41.80;33.80;;;;;;5095939;28;20428;-77
2021/09/09 10:52:04;;;;;;;4.10;3.90;;;42.00;33.60;;;;;;5096122;27;20428;-76
2021/09/09 10:54:34;;;;;;;4.00;3.90;;;42.20;33.50;;;;;;5101806;27;20458;-77
2021/09/09 10:57:15;;;;;;;4.17;4.00;;;42.40;33.10;;;;;;5100907;27;20438;-77
2021/09/09 10:59:50;;;;;;;4.63;4.33;;;42.70;32.90;;;;;;5103583;27;20539;-77
2021/09/09 11:02:19;;;;;;;4.00;3.90;;;42.90;32.70;;;;;;5097312;27;20458;-77
2021/09/09 11:04:49;;;;;;;3.93;3.83;;;43.10;32.50;;;;;;5101878;27;20431;-77
2021/09/09 11:07:21;;;;;;;4.57;4.37;;;43.30;32.30;;;;;;5105943;27;20443;-77
2021/09/09 11:10:01;;;;;;;3.90;3.80;;;43.50;32.00;;;;;;5096604;28;20519;-77
2021/09/09 11:12:34;;;;;;;3.93;3.83;;;43.90;31.90;;;;;;5099108;27;20470;-77
2021/09/09 11:15:06;;;;;;;4.03;3.93;;;44.50;31.20;;;;;;5100395;27;20465;-76
2021/09/09 11:17:34;;;;;;;3.80;3.60;;;45.60;30.20;;;;;;5102683;27;20456;-77
2021/09/09 11:20:04;;;;;;;3.63;3.53;;;46.80;29.40;;;;;;5100741;27;20448;-78
2021/09/09 11:22:31;;;;;;;3.53;3.43;;;47.90;28.40;;;;;;5099912;27;20450;-78
2021/09/09 11:25:00;;;;;;;2.95;2.95;;;48.90;27.60;;;;;;5089701;28;20463;-78
2021/09/09 11:27:29;;;;;;;3.25;3.05;;;49.70;26.80;;;;;;5097356;27;20452;-78
2021/09/09 11:29:58;;;;;;;2.90;2.80;;;50.40;26.10;;;;;;5099909;28;20202;-74
2021/09/09 11:32:27;;;;;;;2.92;2.83;;;51.10;25.80;;;;;;5098277;28;20215;-76
2021/09/09 11:35:06;;;;;;;2.88;2.67;;;51.80;25.20;;;;;;5103434;27;20191;-75
2021/09/09 11:37:43;;;;;;;2.75;2.75;;;52.50;24.70;;;;;;5099670;28;20222;-75
2021/09/09 11:40:12;;;;;;;2.63;2.63;;;53.10;24.00;;;;;;5099794;28;20205;-73
2021/09/09 11:42:40;;;;;;;2.83;2.83;;;53.60;23.80;;;;;;5100179;28;20223;-72
2021/09/09 11:45:08;;;;;;;4.00;2.00;;;54.10;23.60;;;;;;5099398;28;20294;-73
2021/09/09 11:47:38;;;;;;;2.20;2.10;;;54.50;23.20;;;;;;5097510;28;20232;-73
2021/09/09 11:50:06;;;;;;;2.00;2.00;;;54.80;22.80;;;;;;5104430;27;20213;-73
2021/09/09 11:52:36;;;;;;;1.98;1.98;;;55.20;22.50;;;;;;5098770;28;20191;-72
2021/09/09 11:55:11;;;;;;;2.03;2.03;;;55.50;22.40;;;;;;5101091;27;20253;-73
2021/09/09 11:57:42;;;;;;;2.20;2.20;;;55.80;22.10;;;;;;5100911;28;20293;-72
2021/09/09 12:00:10;;;;;;;1.50;1.50;;;56.10;21.80;;;;;;5101474;28;20293;-73
2021/09/09 12:02:40;;;;;;;1.60;1.60;;;56.40;21.60;;;;;;5098028;28;20223;-72
2021/09/09 12:05:08;;;;;;;2.10;2.10;;;56.60;21.60;;;;;;5099637;28;20199;-73
2021/09/09 12:07:37;;;;;;;2.00;1.95;;;56.90;21.30;;;;;;5094630;28;20290;-76
2021/09/09 12:10:06;;;;;;;1.60;1.60;;;57.10;21.00;;;;;;5098531;28;20213;-77
2021/09/09 12:12:35;;;;;;;2.00;1.90;;;57.30;20.80;;;;;;5093665;28;20195;-76
2021/09/09 12:15:03;;;;;;;1.65;1.65;;;57.50;20.70;;;;;;5100237;28;20233;-75
2021/09/09 12:17:32;;;;;;;2.00;2.00;;;57.70;20.50;;;;;;5095989;28;20286;-75
2021/09/09 12:20:03;;;;;;;1.40;1.40;;;57.70;20.40;;;;;;5094465;28;20200;-75
2021/09/09 12:22:50;;;;;;;1.80;1.80;;;57.80;20.30;;;;;;5095790;28;20299;-77
2021/09/09 12:25:20;;;;;;;1.67;1.67;;;58.00;20.20;;;;;;5093398;28;20317;-77
2021/09/09 12:27:55;;;;;;;1.60;1.60;;;58.00;20.30;;;;;;5102121;28;20198;-78
2021/09/09 12:30:26;;;;;;;1.55;1.55;;;58.00;20.10;;;;;;5092753;28;20199;-78
2021/09/09 12:32:54;;;;;;;1.95;1.85;;;58.00;20.20;;;;;;5099801;28;20294;-77
2021/09/09 12:35:24;;;;;;;1.70;1.60;;;58.00;20.00;;;;;;5097308;28;20272;-77
2021/09/09 12:38:02;;;;;;;1.70;1.70;;;58.00;20.70;;;;;;5100414;28;20263;-77
2021/09/09 12:40:44;;;;;;;1.40;1.40;;;57.80;20.10;;;;;;5096487;28;20226;-77
2021/09/09 12:43:25;;;;;;;1.70;1.60;;;58.00;20.20;;;;;;5098753;28;20207;-77
2021/09/09 12:45:54;;;;;;;1.85;1.80;;;58.10;20.00;;;;;;5100820;28;20211;-74
2021/09/09 12:48:22;;;;;;;1.45;1.45;;;58.10;20.00;;;;;;5100514;28;20202;-78
2021/09/09 12:50:58;;;;;;;1.50;1.50;;;58.20;19.80;;;;;;5102139;28;20206;-78
2021/09/09 12:53:31;;;;;;;1.60;1.50;;;58.20;19.80;;;;;;5104631;28;20210;-78
2021/09/09 12:55:59;;;;;;;1.45;1.45;;;58.30;19.80;;;;;;5095496;28;20264;-78
2021/09/09 12:58:27;;;;;;;1.38;1.38;;;58.40;19.80;;;;;;5098133;28;20241;-77